Terminal Aerodrome Forecast
Issued by NWS

Home | Current Version | Previous Version | Graphics & Text | Print | Product List | Glossary On
Versions: 1 2 3 4 5 6 7 8 9 10 11 12 13
000
FTUS43 KMPX 301146
TAFAXN
TAF
KAXN 301146Z 3012/3112 23005KT P6SM OVC080
     FM301500 17004KT P6SM OVC080
     FM301800 21009KT P6SM BKN100
     FM302100 31015G24KT P6SM SCT150
     FM310000 31007KT P6SM SKC=

USA.gov is the U.S. government's official web portal to all federal, state and local government web resources and services.